Time;durP1;ratioP1;P1;durP2;ratioP2;P2;SDS_P1;SDS_P2;PMS_P1;PMS_P2;Temp;Humidity;BMP_temperature;BMP_pressure;BME280_temperature;BME280_humidity;BME280_pressure;Samples;Min_cycle;Max_cycle;Signal;HPM_P1;HPM_P2
2021/06/20 00:01:15;;;;;;;;;6.25;5.00;;;;;22.74;68.07;100535.03;4830020;29;59610;-66
2021/06/20 00:03:40;;;;;;;;;4.75;4.75;;;;;22.72;68.36;100533.44;4829949;29;61169;-66
2021/06/20 00:06:11;;;;;;;;;3.75;3.75;;;;;22.66;68.37;100523.09;4829731;29;63222;-66
2021/06/20 00:08:36;;;;;;;;;3.50;3.50;;;;;22.68;68.42;100535.56;4814739;29;45587;-66
2021/06/20 00:11:01;;;;;;;;;4.25;4.25;;;;;22.61;68.01;100526.22;4829726;29;63300;-66
2021/06/20 00:13:27;;;;;;;;;5.75;3.00;;;;;22.58;68.39;100530.03;4825443;29;63608;-66
2021/06/20 00:15:52;;;;;;;;;3.75;3.75;;;;;22.59;68.43;100533.66;4826829;29;46766;-66
2021/06/20 00:18:18;;;;;;;;;4.50;4.50;;;;;22.56;68.13;100528.47;4828628;29;45327;-67
2021/06/20 00:20:44;;;;;;;;;4.00;3.50;;;;;22.55;68.48;100530.34;4829751;29;58926;-66
2021/06/20 00:23:10;;;;;;;;;5.00;5.00;;;;;22.55;68.80;100532.19;4830419;29;45501;-66
2021/06/20 00:25:35;;;;;;;;;5.75;5.75;;;;;22.53;68.77;100537.75;4829508;29;60350;-66
2021/06/20 00:28:01;;;;;;;;;5.50;5.25;;;;;22.52;68.48;100530.59;4829833;29;56461;-66
2021/06/20 00:30:28;;;;;;;;;4.50;4.50;;;;;22.55;67.48;100532.19;4830420;29;45205;-66
2021/06/20 00:32:54;;;;;;;;;4.25;3.75;;;;;22.52;67.72;100519.72;4830165;29;45460;-66
2021/06/20 00:35:19;;;;;;;;;6.00;4.75;;;;;22.50;67.33;100519.00;4830035;29;46004;-66
2021/06/20 00:37:45;;;;;;;;;5.00;5.00;;;;;22.50;67.40;100519.00;4829973;29;45435;-66
2021/06/20 00:40:11;;;;;;;;;4.75;4.75;;;;;22.46;67.15;100509.34;4829994;29;45427;-66
2021/06/20 00:42:36;;;;;;;;;5.00;4.50;;;;;22.47;67.31;100510.22;4829963;29;45276;-66
2021/06/20 00:45:02;;;;;;;;;4.25;4.25;;;;;22.42;67.30;100507.03;4830019;29;45593;-66
2021/06/20 00:47:27;;;;;;;;;6.00;6.00;;;;;22.42;67.52;100518.78;4829962;29;45339;-66
2021/06/20 00:49:53;;;;;;;;;5.00;5.00;;;;;22.45;67.43;100531.25;4830066;29;45366;-66
2021/06/20 00:52:18;;;;;;;;;3.00;3.00;;;;;22.45;67.02;100520.38;4829268;29;62376;-66
2021/06/20 00:54:49;;;;;;;;;2.75;2.75;;;;;22.44;66.45;100515.94;4828724;29;70471;-66
2021/06/20 00:57:19;;;;;;;;;5.00;5.00;;;;;22.45;65.82;100523.94;4829899;29;45352;-66
2021/06/20 00:59:44;;;;;;;;;2.00;2.00;;;;;22.40;65.79;100523.47;4829797;29;45254;-66
2021/06/20 01:02:11;;;;;;;;;4.00;4.00;;;;;22.38;65.52;100531.75;4829692;29;45288;-66
2021/06/20 01:04:36;;;;;;;;;4.00;4.00;;;;;22.31;65.42;100502.53;4823574;29;46776;-66
2021/06/20 01:07:02;;;;;;;;;4.00;2.50;;;;;22.33;65.85;100517.69;4829029;29;58993;-66
2021/06/20 01:09:28;;;;;;;;;3.50;3.50;;;;;22.25;65.27;100498.44;4829798;29;45325;-66
2021/06/20 01:11:54;;;;;;;;;2.00;2.00;;;;;22.23;65.07;100515.88;4829351;29;45598;-66
2021/06/20 01:14:19;;;;;;;;;1.00;1.00;;;;;22.22;65.12;100520.47;4812432;29;68568;-66
2021/06/20 01:16:44;;;;;;;;;3.50;2.00;;;;;22.18;65.34;100517.13;4829538;29;45341;-66
2021/06/20 01:19:10;;;;;;;;;2.00;2.00;;;;;22.15;65.00;100532.81;4812120;29;55839;-66
2021/06/20 01:21:35;;;;;;;;;2.75;2.00;;;;;22.08;64.51;100518.91;4828814;29;65441;-66
2021/06/20 01:24:01;;;;;;;;;1.50;1.50;;;;;22.06;64.68;100512.72;4797514;29;45428;-66
2021/06/20 01:26:26;;;;;;;;;1.25;1.25;;;;;22.09;64.91;100522.50;4828914;29;66609;-66
2021/06/20 01:29:02;;;;;;;;;2.50;2.00;;;;;22.07;64.47;100525.34;4829000;29;56170;-66
2021/06/20 01:31:27;;;;;;;;;3.00;3.00;;;;;22.06;64.32;100536.34;4829398;29;45316;-66
2021/06/20 01:33:53;;;;;;;;;2.50;2.50;;;;;22.04;64.65;100531.03;4829167;29;45329;-66
2021/06/20 01:36:18;;;;;;;;;3.00;3.00;;;;;22.03;64.64;100526.56;4828604;29;66079;-66
2021/06/20 01:38:43;;;;;;;;;2.75;2.00;;;;;21.97;64.85;100519.81;4828270;29;63075;-66
2021/06/20 01:41:09;;;;;;;;;2.00;2.00;;;;;21.96;65.06;100520.78;4828614;29;65085;-66
2021/06/20 01:43:34;;;;;;;;;3.00;2.00;;;;;21.96;64.50;100534.38;4811927;29;65892;-66
2021/06/20 01:45:59;;;;;;;;;3.00;2.00;;;;;21.94;64.95;100530.09;4828352;29;70538;-66
2021/06/20 01:48:25;;;;;;;;;3.00;3.00;;;;;21.90;65.06;100531.31;4827514;29;68528;-66
2021/06/20 01:50:50;;;;;;;;;2.00;2.00;;;;;21.84;64.55;100522.69;4828408;29;69305;-66
2021/06/20 01:53:16;;;;;;;;;3.00;2.50;;;;;21.80;64.69;100507.66;4827915;29;74293;-66
2021/06/20 01:55:43;;;;;;;;;5.00;3.25;;;;;21.78;64.99;100508.75;4828991;29;45252;-66
2021/06/20 01:58:09;;;;;;;;;3.00;2.75;;;;;21.75;64.83;100514.44;4829045;29;45361;-66
2021/06/20 02:00:36;;;;;;;;;3.00;3.00;;;;;21.71;65.19;100499.41;4829124;29;45324;-66
2021/06/20 02:03:06;;;;;;;;;2.75;2.75;;;;;21.63;65.33;100483.72;4828525;29;46311;-66
2021/06/20 02:05:31;;;;;;;;;3.00;3.00;;;;;21.69;65.20;100491.38;4828956;29;45350;-66
2021/06/20 02:07:56;;;;;;;;;3.25;2.50;;;;;21.71;65.24;100499.41;4828052;29;68248;-66
2021/06/20 02:10:22;;;;;;;;;3.25;3.25;;;;;21.60;65.34;100489.41;4811437;29;65124;-66
2021/06/20 02:12:47;;;;;;;;;2.50;1.50;;;;;21.66;65.17;100494.34;4828679;29;45170;-66
2021/06/20 02:15:15;;;;;;;;;4.00;4.00;;;;;21.69;65.88;100496.81;4828393;29;58450;-66
2021/06/20 02:17:41;;;;;;;;;3.50;3.50;;;;;21.68;65.80;100502.34;4826110;29;45497;-66
2021/06/20 02:20:14;;;;;;;;;4.00;4.00;;;;;21.67;66.01;100497.91;4827610;29;71476;-66
2021/06/20 02:22:40;;;;;;;;;4.00;4.00;;;;;21.65;65.78;100508.91;4828681;29;46113;-66
2021/06/20 02:25:06;;;;;;;;;4.00;4.00;;;;;21.62;65.41;100511.91;4828397;29;45424;-66
2021/06/20 02:27:32;;;;;;;;;3.00;3.00;;;;;21.55;65.81;100511.53;4828782;29;45399;-66
2021/06/20 02:29:57;;;;;;;;;6.50;4.75;;;;;21.59;65.99;100520.28;4828042;29;60523;-66
2021/06/20 02:32:23;;;;;;;;;3.50;3.50;;;;;21.60;65.53;100522.00;4828477;29;45916;-66
2021/06/20 02:34:48;;;;;;;;;4.00;3.00;;;;;21.51;65.95;100503.75;4828677;29;45226;-66
2021/06/20 02:37:14;;;;;;;;;3.00;3.00;;;;;21.56;66.06;100520.53;4828430;29;48554;-66
2021/06/20 02:39:40;;;;;;;;;4.50;3.50;;;;;21.58;65.71;100521.25;4828304;29;45351;-66
2021/06/20 02:42:06;;;;;;;;;4.00;3.00;;;;;21.54;66.01;100520.66;4811934;29;46224;-66
2021/06/20 02:44:31;;;;;;;;;4.25;4.25;;;;;21.50;65.96;100532.78;4828452;29;45267;-66
2021/06/20 02:47:01;;;;;;;;;5.00;4.25;;;;;21.52;65.95;100532.63;4828644;29;45422;-66
2021/06/20 02:49:27;;;;;;;;;3.75;3.75;;;;;21.51;66.51;100536.34;4828368;29;45502;-66
2021/06/20 02:51:52;;;;;;;;;4.00;4.00;;;;;21.48;66.08;100528.44;4828135;29;46293;-66
2021/06/20 02:54:18;;;;;;;;;4.00;4.00;;;;;21.50;66.08;100531.88;4827798;29;50629;-66
2021/06/20 02:56:43;;;;;;;;;5.00;5.00;;;;;21.46;66.10;100528.53;4826663;29;58628;-66
2021/06/20 02:59:08;;;;;;;;;4.25;4.25;;;;;21.43;66.57;100526.94;4827452;29;64433;-66
2021/06/20 03:01:34;;;;;;;;;6.00;4.00;;;;;21.45;66.66;100530.41;4829909;29;75112;-66
2021/06/20 03:03:59;;;;;;;;;6.00;5.25;;;;;21.43;66.13;100534.22;4831019;29;45659;-66
2021/06/20 03:06:25;;;;;;;;;4.25;4.25;;;;;21.43;65.87;100543.25;4831730;29;45410;-66
2021/06/20 03:08:50;;;;;;;;;5.25;4.25;;;;;21.44;66.44;100534.09;4830942;29;45265;-66
2021/06/20 03:11:16;;;;;;;;;3.00;3.00;;;;;21.44;66.33;100531.38;4830859;29;67489;-66
2021/06/20 03:13:42;;;;;;;;;4.00;4.00;;;;;21.43;65.85;100532.38;4831197;29;45342;-66
2021/06/20 03:16:07;;;;;;;;;4.00;2.75;;;;;21.33;65.84;100511.53;4830129;29;45335;-66
2021/06/20 03:18:33;;;;;;;;;3.00;3.00;;;;;21.41;65.77;100528.91;4830710;29;45333;-66
2021/06/20 03:20:58;;;;;;;;;3.00;3.00;;;;;21.38;65.50;100521.00;4831020;29;46298;-66
2021/06/20 03:23:23;;;;;;;;;3.75;2.50;;;;;21.40;65.34;100529.91;4831201;29;45423;-66
2021/06/20 03:25:49;;;;;;;;;3.25;3.25;;;;;21.37;65.35;100523.88;4831029;29;45390;-66
2021/06/20 03:28:14;;;;;;;;;2.75;2.00;;;;;21.38;65.02;100518.28;4830820;29;54744;-66
2021/06/20 03:30:39;;;;;;;;;2.00;2.00;;;;;21.33;64.83;100508.81;4830809;29;53848;-66
2021/06/20 03:33:05;;;;;;;;;3.00;3.00;;;;;21.35;64.93;100520.41;4830955;29;46569;-66
2021/06/20 03:35:30;;;;;;;;;3.25;3.25;;;;;21.29;65.19;100522.63;4830437;29;61592;-66
2021/06/20 03:37:56;;;;;;;;;2.50;2.50;;;;;21.33;65.26;100530.53;4830330;29;64601;-66
2021/06/20 03:40:21;;;;;;;;;2.00;2.00;;;;;21.34;65.23;100529.53;4829951;29;69928;-66
2021/06/20 03:42:46;;;;;;;;;2.00;2.00;;;;;21.35;64.69;100517.69;4831015;29;45499;-66
2021/06/20 03:45:12;;;;;;;;;3.00;2.00;;;;;21.32;64.65;100513.38;4830136;29;67289;-66
2021/06/20 03:47:37;;;;;;;;;2.00;2.00;;;;;21.30;64.67;100523.50;4830081;29;67712;-66
2021/06/20 03:50:04;;;;;;;;;2.00;2.00;;;;;21.26;64.30;100528.28;4818720;29;45494;-66
2021/06/20 03:52:29;;;;;;;;;1.50;1.50;;;;;21.24;64.59;100526.72;4830697;29;45384;-66
2021/06/20 03:54:55;;;;;;;;;2.75;2.75;;;;;21.19;64.22;100518.94;4830846;29;45257;-66
2021/06/20 03:57:21;;;;;;;;;3.00;1.25;;;;;21.19;64.79;100513.50;4830710;29;45330;-66
2021/06/20 03:59:46;;;;;;;;;1.00;1.00;;;;;21.13;64.24;100505.00;4830779;29;46150;-66
2021/06/20 04:02:12;;;;;;;;;3.00;3.00;;;;;21.09;64.32;100515.22;4829977;29;59402;-66
2021/06/20 04:04:39;;;;;;;;;2.75;1.25;;;;;21.10;64.71;100531.41;4830634;29;45561;-66
2021/06/20 04:07:06;;;;;;;;;2.50;2.00;;;;;21.08;64.13;100519.81;4830457;29;45445;-66
2021/06/20 04:09:31;;;;;;;;;3.00;1.50;;;;;21.00;64.13;100514.13;4830376;29;47162;-66
2021/06/20 04:11:56;;;;;;;;;2.00;2.00;;;;;20.95;64.17;100515.47;4829232;29;66968;-66
2021/06/20 04:14:22;;;;;;;;;1.00;1.00;;;;;20.95;64.29;100529.03;4828694;29;60129;-66
2021/06/20 04:16:47;;;;;;;;;1.50;1.50;;;;;21.01;63.97;100536.69;4829978;29;56064;-66
2021/06/20 04:19:12;;;;;;;;;2.00;2.00;;;;;21.00;64.09;100549.41;4828930;29;67519;-66
2021/06/20 04:21:38;;;;;;;;;2.00;2.00;;;;;21.00;63.90;100549.41;4829388;29;58714;-66
2021/06/20 04:24:04;;;;;;;;;3.00;2.00;;;;;20.95;63.82;100548.03;4829992;29;47127;-66
2021/06/20 04:26:29;;;;;;;;;2.00;2.00;;;;;20.94;64.32;100552.59;4830150;29;45545;-66
2021/06/20 04:28:54;;;;;;;;;1.75;1.00;;;;;20.94;64.00;100562.59;4828339;29;70940;-66
2021/06/20 04:31:20;;;;;;;;;2.00;2.00;;;;;20.96;64.04;100563.31;4830435;29;45378;-66
2021/06/20 04:33:45;;;;;;;;;2.00;2.00;;;;;20.91;63.83;100553.72;4829376;29;61563;-66
2021/06/20 04:36:11;;;;;;;;;1.50;1.25;;;;;20.92;63.81;100560.84;4830293;29;46113;-66
2021/06/20 04:38:37;;;;;;;;;3.00;1.50;;;;;20.93;64.00;100553.56;4829880;29;45945;-66
2021/06/20 04:41:05;;;;;;;;;1.00;1.00;;;;;20.88;63.69;100558.50;4813875;29;45456;-66
2021/06/20 04:46:30;;;;;;;;;3.00;2.00;;;;;20.79;63.69;100538.38;4829939;29;45281;-66
2021/06/20 04:49:00;;;;;;;;;3.25;1.50;;;;;20.68;63.27;100531.09;4829331;29;46053;-66
2021/06/20 04:51:27;;;;;;;;;1.00;1.00;;;;;20.70;63.94;100542.69;4796989;29;45849;-66
2021/06/20 04:53:53;;;;;;;;;3.00;1.00;;;;;20.65;63.97;100544.03;4821849;29;45302;-66
2021/06/20 04:56:18;;;;;;;;;3.25;1.25;;;;;20.67;64.25;100552.91;4828874;29;69835;-66
2021/06/20 04:58:43;;;;;;;;;3.00;2.75;;;;;20.64;63.96;100551.28;4829499;29;45513;-66
2021/06/20 05:01:09;;;;;;;;;1.50;1.50;;;;;20.62;63.58;100557.81;4829353;29;45301;-66
2021/06/20 05:03:34;;;;;;;;;2.50;1.50;;;;;20.60;63.82;100566.06;4829497;29;45409;-66
2021/06/20 05:06:00;;;;;;;;;2.00;1.25;;;;;20.62;64.10;100555.94;4829645;29;45230;-66
2021/06/20 05:08:25;;;;;;;;;0.00;0.00;;;;;20.61;63.86;100551.50;4829118;29;45940;-66
2021/06/20 05:10:52;;;;;;;;;1.75;1.75;;;;;20.57;63.77;100547.31;4828608;29;67922;-66
2021/06/20 05:13:17;;;;;;;;;3.00;1.00;;;;;20.56;63.94;100548.28;4829626;29;45248;-66
2021/06/20 05:15:42;;;;;;;;;2.00;2.00;;;;;20.55;64.14;100554.69;4828765;29;71041;-66
2021/06/20 05:18:08;;;;;;;;;1.75;1.75;;;;;20.54;64.40;100548.41;4828268;29;72256;-66
2021/06/20 05:20:33;;;;;;;;;2.25;2.25;;;;;20.57;64.14;100566.28;4828555;29;63379;-66
2021/06/20 05:22:59;;;;;;;;;2.00;2.00;;;;;20.57;64.23;100563.56;4828787;29;45406;-66
2021/06/20 05:25:24;;;;;;;;;3.25;3.00;;;;;20.56;64.25;100561.84;4828498;29;69484;-66
2021/06/20 05:27:50;;;;;;;;;3.00;3.00;;;;;20.50;63.92;100554.19;4829272;29;46701;-66
2021/06/20 05:30:15;;;;;;;;;2.25;1.50;;;;;20.54;63.79;100556.53;4812507;29;58535;-66
2021/06/20 05:32:41;;;;;;;;;3.00;3.00;;;;;20.46;63.69;100560.81;4829372;29;45403;-66
2021/06/20 05:35:06;;;;;;;;;3.25;2.25;;;;;20.43;63.65;100548.38;4828468;29;67828;-66
2021/06/20 05:37:32;;;;;;;;;5.00;2.00;;;;;20.48;64.02;100553.44;4829248;29;45819;-66
2021/06/20 05:39:57;;;;;;;;;1.00;1.00;;;;;20.48;64.10;100553.44;4821111;29;54289;-66
2021/06/20 05:42:22;;;;;;;;;3.00;3.00;;;;;20.51;64.21;100564.94;4829060;29;48804;-66
2021/06/20 05:44:48;;;;;;;;;3.00;3.00;;;;;20.51;63.71;100559.50;4829053;29;45363;-66
2021/06/20 05:47:13;;;;;;;;;3.00;3.00;;;;;20.50;64.30;100557.75;4828583;29;46110;-66
2021/06/20 05:49:38;;;;;;;;;2.00;2.00;;;;;20.51;64.48;100558.63;4828704;29;60973;-66
2021/06/20 05:52:04;;;;;;;;;2.00;2.00;;;;;20.48;64.31;100551.59;4828702;29;58107;-66
2021/06/20 05:54:29;;;;;;;;;3.00;2.00;;;;;20.47;64.33;100551.72;4828861;29;45435;-66
2021/06/20 05:56:55;;;;;;;;;2.25;2.25;;;;;20.48;64.28;100562.44;4828215;29;66861;-66
2021/06/20 05:59:20;;;;;;;;;3.00;3.00;;;;;20.51;64.56;100577.59;4827174;29;61988;-66
2021/06/20 06:01:45;;;;;;;;;2.00;2.00;;;;;20.48;64.74;100566.97;4826107;29;70760;-66
2021/06/20 06:04:11;;;;;;;;;3.00;2.00;;;;;20.49;64.68;100566.88;4828130;29;45495;-66
2021/06/20 06:06:36;;;;;;;;;2.25;2.25;;;;;20.52;64.03;100561.22;4828395;29;63619;-66
2021/06/20 06:09:02;;;;;;;;;4.25;2.75;;;;;20.54;64.84;100561.94;4827368;29;56533;-66
2021/06/20 06:11:27;;;;;;;;;6.25;3.00;;;;;20.55;64.53;100576.41;4828991;29;45251;-66
2021/06/20 06:13:53;;;;;;;;;5.50;4.00;;;;;20.58;64.60;100583.41;4827791;29;67749;-66
2021/06/20 06:16:18;;;;;;;;;2.75;2.75;;;;;20.58;64.38;100576.16;4828679;29;46268;-66
2021/06/20 06:18:44;;;;;;;;;4.00;3.00;;;;;20.63;63.92;100574.00;4826998;29;67231;-66
2021/06/20 06:21:09;;;;;;;;;4.00;4.00;;;;;20.65;63.71;100568.44;4828754;29;45486;-66
2021/06/20 06:23:35;;;;;;;;;5.25;3.75;;;;;20.64;63.87;100558.56;4828324;29;45496;-66
2021/06/20 06:26:00;;;;;;;;;2.00;2.00;;;;;20.63;64.26;100559.53;4827732;29;70966;-66
2021/06/20 06:28:26;;;;;;;;;2.75;2.75;;;;;20.67;64.05;100569.19;4828055;29;45235;-66
2021/06/20 06:30:51;;;;;;;;;2.00;2.00;;;;;20.63;64.07;100562.25;4827734;29;61455;-66
2021/06/20 06:33:16;;;;;;;;;2.25;2.00;;;;;20.66;63.90;100560.16;4828292;29;45482;-66
2021/06/20 06:35:42;;;;;;;;;6.50;4.00;;;;;20.68;63.86;100557.34;4811818;29;47206;-66
2021/06/20 06:38:07;;;;;;;;;2.75;2.75;;;;;20.70;63.40;100567.09;4827636;29;65428;-66
2021/06/20 06:40:33;;;;;;;;;5.00;3.25;;;;;20.71;63.60;100558.00;4828013;29;50327;-66
2021/06/20 06:42:58;;;;;;;;;3.00;3.00;;;;;20.72;63.44;100558.84;4828464;29;45378;-66
2021/06/20 06:45:24;;;;;;;;;2.00;2.00;;;;;20.73;63.60;100561.44;4827812;29;57488;-66
2021/06/20 06:47:49;;;;;;;;;4.25;4.00;;;;;20.66;63.81;100552.03;4825943;29;56279;-66
2021/06/20 06:50:14;;;;;;;;;3.00;3.00;;;;;20.75;63.61;100568.56;4828123;29;45387;-66
2021/06/20 06:52:40;;;;;;;;;2.75;2.25;;;;;20.72;63.39;100557.00;4827803;29;55722;-66
2021/06/20 06:55:06;;;;;;;;;4.00;4.00;;;;;20.76;63.41;100556.75;4827818;29;46044;-66
2021/06/20 06:57:32;;;;;;;;;3.75;3.75;;;;;20.74;63.56;100554.16;4828128;29;45235;-66
2021/06/20 06:59:57;;;;;;;;;3.00;3.00;;;;;20.74;63.20;100573.16;4812073;29;45365;-66
2021/06/20 07:02:23;;;;;;;;;3.00;3.00;;;;;20.74;63.57;100570.44;4827323;29;63733;-66
2021/06/20 07:04:48;;;;;;;;;2.00;2.00;;;;;20.77;63.17;100574.78;4827912;29;46111;-66
2021/06/20 07:07:13;;;;;;;;;4.00;3.25;;;;;20.79;63.55;100579.06;4827721;29;45530;-66
2021/06/20 07:09:39;;;;;;;;;3.00;3.00;;;;;20.79;63.44;100583.63;4827001;29;65526;-66
2021/06/20 07:12:05;;;;;;;;;4.00;4.00;;;;;20.82;63.32;100575.28;4827691;29;45433;-66
2021/06/20 07:14:34;;;;;;;;;4.00;2.75;;;;;20.82;63.73;100581.56;4827599;29;47824;-66
2021/06/20 07:17:01;;;;;;;;;2.00;2.00;;;;;20.84;63.11;100579.56;4827169;29;45506;-66
2021/06/20 07:19:27;;;;;;;;;5.75;4.00;;;;;20.89;63.37;100580.06;4827490;29;45225;-66
2021/06/20 07:21:52;;;;;;;;;3.75;3.00;;;;;20.94;62.96;100582.44;4826898;29;62480;-66
2021/06/20 07:24:17;;;;;;;;;3.00;3.00;;;;;20.99;62.34;100585.66;4826773;29;72934;-65
2021/06/20 07:26:43;;;;;;;;;4.00;4.00;;;;;20.96;62.99;100569.59;4827541;29;45236;-66
2021/06/20 07:29:08;;;;;;;;;2.75;2.75;;;;;21.05;62.31;100584.31;4811025;29;57098;-66
2021/06/20 07:31:33;;;;;;;;;3.00;3.00;;;;;21.10;62.01;100582.97;4826697;29;57332;-66
2021/06/20 07:33:59;;;;;;;;;3.25;3.00;;;;;21.12;61.61;100571.09;4825587;29;65318;-66
2021/06/20 07:36:24;;;;;;;;;3.25;3.25;;;;;21.18;62.08;100592.34;4796310;29;45360;-66
2021/06/20 07:38:50;;;;;;;;;3.00;3.00;;;;;21.19;62.32;100594.06;4810663;29;45692;-66
2021/06/20 07:41:15;;;;;;;;;3.00;3.00;;;;;21.19;62.42;100589.50;4827964;29;45524;-66
2021/06/20 07:43:41;;;;;;;;;2.50;2.50;;;;;21.27;61.93;100591.63;4810877;29;45316;-66
2021/06/20 07:46:06;;;;;;;;;3.50;3.50;;;;;21.27;62.20;100570.75;4827494;29;54687;-66
2021/06/20 07:48:31;;;;;;;;;3.50;3.50;;;;;21.35;62.06;100572.88;4827104;29;57855;-74
2021/06/20 07:50:57;;;;;;;;;2.75;2.00;;;;;21.35;61.46;100569.25;4830172;29;45455;-74
2021/06/20 07:53:22;;;;;;;;;2.50;2.50;;;;;21.29;61.31;100559.78;4830014;29;45457;-74
2021/06/20 07:55:48;;;;;;;;;4.00;4.00;;;;;21.43;61.93;100562.25;4823824;29;45529;-73
2021/06/20 07:58:13;;;;;;;;;1.50;1.50;;;;;21.53;61.49;100564.22;4814038;29;45246;-67
2021/06/20 08:00:39;;;;;;;;;3.25;1.75;;;;;21.55;60.75;100556.81;4830348;29;45262;-69
2021/06/20 08:03:04;;;;;;;;;4.25;4.00;;;;;21.55;61.07;100541.41;4813307;29;45444;-66
2021/06/20 08:05:29;;;;;;;;;3.00;3.00;;;;;21.60;61.29;100549.16;4814027;29;45923;-66
2021/06/20 08:07:55;;;;;;;;;3.00;3.00;;;;;21.62;61.08;100548.06;4813393;29;51365;-66
2021/06/20 08:10:21;;;;;;;;;2.00;2.00;;;;;21.60;60.43;100538.28;4798744;29;45408;-66
2021/06/20 08:12:46;;;;;;;;;2.75;2.75;;;;;21.67;60.75;100553.13;4813495;29;45328;-66
2021/06/20 08:15:12;;;;;;;;;3.50;3.50;;;;;21.63;60.96;100535.31;4826347;29;45347;-66
2021/06/20 08:17:37;;;;;;;;;5.25;3.00;;;;;21.77;60.18;100555.94;4797810;29;45315;-66
2021/06/20 08:20:06;;;;;;;;;2.50;2.50;;;;;21.83;60.99;100555.41;4828711;29;53275;-66
2021/06/20 08:22:31;;;;;;;;;5.50;4.00;;;;;21.89;60.17;100552.19;4813986;29;46662;-66
2021/06/20 08:24:56;;;;;;;;;4.00;4.00;;;;;21.87;60.15;100543.31;4829493;29;68275;-66
2021/06/20 08:27:22;;;;;;;;;3.00;3.00;;;;;21.99;59.74;100544.16;4830351;29;45487;-66
2021/06/20 08:29:49;;;;;;;;;3.75;2.75;;;;;22.01;60.00;100542.16;4829677;29;61454;-66
2021/06/20 08:32:16;;;;;;;;;2.75;2.75;;;;;22.12;59.30;100547.56;4813665;29;45370;-66
2021/06/20 08:34:41;;;;;;;;;3.25;3.00;;;;;22.17;59.73;100545.31;4830252;29;45473;-66
2021/06/20 08:37:07;;;;;;;;;2.50;2.50;;;;;22.19;59.89;100548.75;4830175;29;45321;-66
2021/06/20 08:39:32;;;;;;;;;3.75;3.75;;;;;22.20;59.84;100541.47;4829295;29;67959;-66
2021/06/20 08:41:58;;;;;;;;;3.75;3.00;;;;;22.16;59.85;100531.84;4829291;29;62770;-66
2021/06/20 08:44:30;;;;;;;;;5.75;4.00;;;;;22.24;59.22;100542.94;4824039;29;45364;-67
2021/06/20 08:46:56;;;;;;;;;3.25;3.00;;;;;22.24;59.29;100547.53;4798270;29;45467;-66
2021/06/20 08:49:22;;;;;;;;;3.00;3.00;;;;;22.31;59.69;100552.31;4829755;29;45419;-65
2021/06/20 08:51:49;;;;;;;;;3.50;3.50;;;;;22.31;58.86;100552.31;4829698;29;46213;-66
2021/06/20 08:54:14;;;;;;;;;3.00;3.00;;;;;22.30;59.06;100552.44;4829463;29;45382;-66
2021/06/20 08:56:40;;;;;;;;;2.75;2.25;;;;;22.32;59.18;100539.59;4829028;29;45258;-66
2021/06/20 08:59:06;;;;;;;;;2.75;2.75;;;;;22.29;59.42;100529.84;4828715;29;45793;-66
2021/06/20 09:01:32;;;;;;;;;3.75;3.75;;;;;22.33;59.24;100535.88;4826979;29;47133;-67
2021/06/20 09:03:57;;;;;;;;;2.00;2.00;;;;;22.33;59.13;100534.00;4829228;29;45759;-66
2021/06/20 09:06:24;;;;;;;;;3.00;3.00;;;;;22.35;59.35;100520.28;4829613;29;45303;-66
2021/06/20 09:08:51;;;;;;;;;4.00;4.00;;;;;22.38;58.68;100512.72;4829559;29;45262;-67
2021/06/20 09:11:30;;;;;;;;;5.00;3.00;;;;;22.42;59.52;100499.75;4829594;29;45380;-67
2021/06/20 09:14:06;;;;;;;;;3.00;3.00;;;;;22.48;58.97;100493.75;4829458;29;45638;-67
2021/06/20 09:16:32;;;;;;;;;2.25;2.25;;;;;22.50;58.80;100482.75;4829704;29;45354;-67
2021/06/20 09:18:57;;;;;;;;;3.50;3.25;;;;;22.52;58.31;100483.47;4828856;29;45482;-67
2021/06/20 09:21:26;;;;;;;;;3.00;3.00;;;;;22.49;58.08;100464.72;4812997;29;46257;-67
2021/06/20 09:23:55;;;;;;;;;3.00;3.00;;;;;22.61;57.43;100479.13;4811918;29;45474;-66
2021/06/20 09:26:42;;;;;;;;;1.25;1.25;;;;;22.62;57.68;100469.94;4829615;29;45389;-67
2021/06/20 09:29:08;;;;;;;;;3.00;1.75;;;;;22.65;56.98;100469.69;4829220;29;45383;-66
2021/06/20 09:31:45;;;;;;;;;4.50;2.50;;;;;22.68;57.09;100464.81;4827227;29;46318;-66
2021/06/20 09:34:10;;;;;;;;;3.00;3.00;;;;;22.69;56.49;100463.00;4826289;29;45381;-66
2021/06/20 09:36:36;;;;;;;;;3.00;2.00;;;;;22.67;57.45;100454.97;4813036;29;45802;-66
2021/06/20 09:39:04;;;;;;;;;5.00;3.25;;;;;22.68;56.74;100453.09;4828209;29;68320;-66
2021/06/20 09:41:29;;;;;;;;;3.00;3.00;;;;;22.69;56.82;100455.69;4829139;29;45467;-66
2021/06/20 09:43:55;;;;;;;;;3.00;3.00;;;;;22.74;56.54;100469.72;4828334;29;67578;-66
2021/06/20 09:46:21;;;;;;;;;3.00;3.00;;;;;22.76;56.58;100484.06;4824529;29;45794;-66
2021/06/20 09:48:47;;;;;;;;;2.50;2.50;;;;;22.75;56.61;100476.91;4825158;29;45509;-66
2021/06/20 09:51:20;;;;;;;;;3.00;3.00;;;;;22.84;56.16;100477.97;4823798;29;46352;-66
2021/06/20 09:53:47;;;;;;;;;3.75;2.75;;;;;22.87;55.78;100464.09;4823370;29;45784;-66
2021/06/20 09:56:19;;;;;;;;;2.75;2.75;;;;;22.90;55.85;100460.22;4825618;29;45733;-66
2021/06/20 09:58:45;;;;;;;;;2.00;2.00;;;;;22.93;55.72;100465.38;4824690;29;45760;-66
2021/06/20 10:01:12;;;;;;;;;3.50;2.75;;;;;22.98;55.41;100467.69;4824779;29;46986;-66
2021/06/20 10:03:37;;;;;;;;;5.00;2.50;;;;;23.01;54.93;100464.72;4823920;29;45469;-66
2021/06/20 10:06:03;;;;;;;;;3.75;3.75;;;;;22.97;55.14;100460.53;4825496;29;45818;-66
2021/06/20 10:08:31;;;;;;;;;3.00;3.00;;;;;22.98;55.18;100471.28;4807796;29;45705;-66
2021/06/20 10:10:56;;;;;;;;;3.75;2.25;;;;;23.00;55.31;100466.56;4814567;29;47204;-66
2021/06/20 10:13:22;;;;;;;;;1.00;1.00;;;;;23.11;54.98;100469.22;4822941;29;68297;-66
2021/06/20 10:15:47;;;;;;;;;4.25;2.25;;;;;23.17;54.64;100454.22;4812183;29;60750;-66
2021/06/20 10:18:12;;;;;;;;;2.50;2.50;;;;;23.23;55.04;100450.06;4823847;29;72270;-66
2021/06/20 10:20:38;;;;;;;;;2.25;2.25;;;;;23.27;54.57;100455.09;4806774;29;47227;-66
2021/06/20 10:23:03;;;;;;;;;2.00;2.00;;;;;23.30;54.65;100451.22;4810420;29;45297;-66
2021/06/20 10:25:51;;;;;;;;;3.75;3.75;;;;;23.29;54.16;100438.63;4793931;29;45377;-66
2021/06/20 10:28:19;;;;;;;;;2.50;2.00;;;;;23.37;54.59;100441.50;4796729;29;45546;-65
2021/06/20 10:30:46;;;;;;;;;1.75;1.75;;;;;23.41;53.82;100442.09;4823999;29;46239;-65
2021/06/20 10:33:20;;;;;;;;;3.50;3.00;;;;;23.43;53.54;100437.34;4828604;29;45396;-65
2021/06/20 10:36:00;;;;;;;;;3.00;3.00;;;;;23.43;53.38;100427.31;4816554;29;45497;-65
2021/06/20 10:38:37;;;;;;;;;3.00;2.75;;;;;23.46;53.16;100427.03;4828381;29;45529;-65
2021/06/20 10:41:03;;;;;;;;;0.25;0.25;;;;;23.45;53.07;100402.66;4827849;29;46206;-65
2021/06/20 10:43:28;;;;;;;;;1.00;1.00;;;;;23.45;52.90;100387.16;4828442;29;46841;-65
2021/06/20 10:45:54;;;;;;;;;3.25;2.00;;;;;23.55;51.41;100378.16;4827577;29;64247;-65
2021/06/20 10:48:21;;;;;;;;;1.50;1.50;;;;;23.57;51.90;100371.56;4828291;29;45462;-65
2021/06/20 10:50:50;;;;;;;;;3.25;1.75;;;;;23.53;52.43;100350.19;4826474;29;48277;-65
2021/06/20 10:53:15;;;;;;;;;2.25;2.00;;;;;23.61;51.98;100351.19;4827311;29;45526;-65
2021/06/20 10:55:48;;;;;;;;;2.25;2.00;;;;;23.63;51.89;100346.44;4828182;29;45284;-66
2021/06/20 10:58:28;;;;;;;;;15.50;15.50;;;;;23.67;51.14;100352.47;4828363;29;45243;-65
2021/06/20 11:01:10;;;;;;;;;7.25;5.25;;;;;23.71;51.94;100350.34;4826747;29;45416;-65
2021/06/20 11:03:35;;;;;;;;;2.25;2.25;;;;;23.74;51.98;100348.19;4811679;29;45638;-66
2021/06/20 11:06:07;;;;;;;;;2.50;2.25;;;;;23.79;51.49;100355.91;4828468;29;45347;-65
2021/06/20 11:08:37;;;;;;;;;2.00;2.00;;;;;23.84;51.22;100340.03;4827855;29;45234;-66
2021/06/20 11:11:02;;;;;;;;;2.00;2.00;;;;;23.90;51.80;100308.59;4827551;29;46341;-66
2021/06/20 11:13:28;;;;;;;;;2.25;2.25;;;;;23.93;51.15;100289.22;4827621;29;45296;-66
2021/06/20 11:16:02;;;;;;;;;4.00;4.00;;;;;23.96;50.91;100297.97;4809810;29;59066;-66
2021/06/20 11:18:27;;;;;;;;;4.75;3.25;;;;;23.92;50.73;100298.41;4807758;29;45392;-66
2021/06/20 11:20:52;;;;;;;;;4.00;4.00;;;;;24.00;50.91;100301.25;4827435;29;46091;-65
2021/06/20 11:23:18;;;;;;;;;2.50;2.50;;;;;24.03;50.78;100301.81;4829799;29;66707;-65